Time;durP1;ratioP1;P1;durP2;ratioP2;P2;SDS_P1;SDS_P2;PMS_P1;PMS_P2;Temp;Humidity;BMP_temperature;BMP_pressure;BME280_temperature;BME280_humidity;BME280_pressure;Samples;Min_cycle;Max_cycle;Signal;HPM_P1;HPM_P2
2022/04/19 00:01:25;;;;;;;12.13;9.98;;;25.40;99.90;;;;;;4160201;28;20037;-75
2022/04/19 00:03:33;;;;;;;15.98;10.10;;;25.30;99.90;;;;;;4108514;28;20054;-76
2022/04/19 00:05:41;;;;;;;14.00;10.25;;;25.30;99.90;;;;;;4158877;28;20046;-76
2022/04/19 00:07:47;;;;;;;16.00;10.90;;;25.30;99.90;;;;;;4159180;28;20068;-75
2022/04/19 00:09:55;;;;;;;16.33;11.00;;;25.30;99.90;;;;;;4158362;28;20061;-75
2022/04/19 00:12:01;;;;;;;16.13;11.63;;;25.40;99.90;;;;;;4175047;28;20045;-76
2022/04/19 00:14:08;;;;;;;12.68;10.68;;;25.50;99.90;;;;;;4160265;28;20042;-72
2022/04/19 00:16:17;;;;;;;15.82;11.18;;;25.60;99.90;;;;;;4161213;28;20428;-74
2022/04/19 00:18:23;;;;;;;15.45;10.52;;;25.60;99.90;;;;;;4161309;28;20052;-74
2022/04/19 00:20:30;;;;;;;12.80;10.27;;;25.50;99.90;;;;;;4161027;28;20068;-74
2022/04/19 00:22:39;;;;;;;15.80;11.50;;;25.60;99.90;;;;;;4160926;28;20635;-72
2022/04/19 00:24:49;;;;;;;14.10;11.30;;;25.60;99.90;;;;;;4160986;28;20111;-75
2022/04/19 00:26:55;;;;;;;15.77;11.13;;;25.70;99.90;;;;;;4157489;28;20053;-73
2022/04/19 00:29:03;;;;;;;16.92;11.45;;;25.70;99.90;;;;;;4160079;28;20046;-71
2022/04/19 00:31:08;;;;;;;14.95;9.93;;;25.70;99.90;;;;;;4176248;28;20048;-73
2022/04/19 00:33:20;;;;;;;17.10;11.07;;;25.70;99.90;;;;;;4157137;28;20065;-74
2022/04/19 00:35:31;;;;;;;17.50;11.10;;;25.70;99.90;;;;;;4144288;28;20465;-74
2022/04/19 00:37:37;;;;;;;18.88;10.45;;;25.70;99.90;;;;;;4161137;28;20428;-73
2022/04/19 00:39:43;;;;;;;12.70;10.68;;;25.60;99.90;;;;;;4155941;28;20099;-72
2022/04/19 00:41:51;;;;;;;15.10;10.30;;;25.60;99.90;;;;;;4174772;28;20124;-73
2022/04/19 00:43:56;;;;;;;13.68;10.00;;;25.50;99.90;;;;;;4159953;28;20068;-72
2022/04/19 00:46:02;;;;;;;14.77;10.15;;;25.60;99.90;;;;;;4160323;28;20111;-74
2022/04/19 00:48:10;;;;;;;13.00;9.25;;;25.40;99.90;;;;;;4142134;28;20050;-73
2022/04/19 00:50:15;;;;;;;14.25;9.63;;;25.40;99.90;;;;;;4160894;28;20160;-73
2022/04/19 00:52:22;;;;;;;12.55;8.98;;;25.50;99.90;;;;;;4155758;28;20397;-71
2022/04/19 00:54:31;;;;;;;14.30;9.38;;;25.60;99.90;;;;;;4143255;28;20054;-72
2022/04/19 00:56:37;;;;;;;11.85;9.25;;;25.60;99.90;;;;;;4149207;28;20046;-72
2022/04/19 00:58:43;;;;;;;12.30;9.45;;;25.70;99.90;;;;;;4171955;28;20383;-69
2022/04/19 01:00:50;;;;;;;15.05;9.23;;;25.70;99.90;;;;;;4160749;28;20084;-72
2022/04/19 01:02:58;;;;;;;14.95;9.43;;;25.70;99.90;;;;;;4166513;28;20041;-72
2022/04/19 01:05:13;;;;;;;12.13;8.77;;;25.40;99.90;;;;;;4156310;28;20037;-72
2022/04/19 01:07:19;;;;;;;11.70;9.35;;;25.40;99.90;;;;;;4152901;28;20061;-72
2022/04/19 01:09:25;;;;;;;12.70;9.45;;;25.40;99.90;;;;;;4152394;28;20073;-73
2022/04/19 01:13:49;;;;;;;14.27;9.75;;;25.80;99.90;;;;;;4153522;28;20053;-73
2022/04/19 01:15:54;;;;;;;11.02;8.52;;;25.60;99.90;;;;;;4153617;28;20053;-73
2022/04/19 01:18:08;;;;;;;;;;;25.50;99.90;;;;;;4159287;28;20040;-73
2022/04/19 01:20:18;;;;;;;14.68;8.18;;;25.60;99.90;;;;;;4105455;28;19922;-71
2022/04/19 01:22:24;;;;;;;10.55;8.85;;;25.60;99.90;;;;;;4165298;28;20539;-70
2022/04/19 01:24:33;;;;;;;10.63;8.23;;;25.70;99.90;;;;;;4168237;28;20041;-71
2022/04/19 01:26:38;;;;;;;11.02;8.20;;;25.80;99.90;;;;;;4152957;28;20379;-70
2022/04/19 01:28:43;;;;;;;11.52;8.43;;;25.70;99.90;;;;;;4145896;28;20065;-72
2022/04/19 01:31:03;;;;;;;11.50;7.82;;;25.70;99.90;;;;;;4159388;28;20037;-72
2022/04/19 01:33:20;;;;;;;9.73;7.88;;;25.60;99.90;;;;;;4170111;28;20823;-72
2022/04/19 01:35:27;;;;;;;12.93;8.18;;;25.80;99.90;;;;;;4167181;28;20730;-74
2022/04/19 01:37:35;;;;;;;12.23;8.82;;;26.10;99.90;;;;;;4152853;28;20052;-73
2022/04/19 01:42:05;;;;;;;8.98;7.95;;;26.30;99.90;;;;;;4154057;28;20092;-72
2022/04/19 01:44:14;;;;;;;10.90;7.68;;;26.10;99.90;;;;;;4160926;28;20666;-72
2022/04/19 01:46:23;;;;;;;9.68;7.10;;;26.30;99.90;;;;;;4154521;28;20037;-72
2022/04/19 01:48:29;;;;;;;11.60;7.20;;;26.20;99.90;;;;;;4155843;28;20081;-71
2022/04/19 01:50:37;;;;;;;9.35;7.05;;;26.40;99.90;;;;;;4155354;28;20052;-71
2022/04/19 01:52:48;;;;;;;9.05;6.82;;;26.50;99.90;;;;;;4160987;28;20049;-71
2022/04/19 01:54:59;;;;;;;8.98;6.70;;;26.50;99.80;;;;;;4161428;28;20525;-72
2022/04/19 01:57:16;;;;;;;7.97;6.15;;;26.30;99.90;;;;;;4155295;28;20049;-70
2022/04/19 01:59:29;;;;;;;11.27;5.93;;;26.40;99.10;;;;;;4169850;28;20049;-71
2022/04/19 02:01:47;;;;;;;8.38;5.00;;;26.50;99.00;;;;;;4167675;28;20034;-71
2022/04/19 02:03:55;;;;;;;7.65;5.30;;;26.60;97.90;;;;;;4166548;28;20045;-72
2022/04/19 02:06:10;;;;;;;9.60;5.88;;;26.60;97.90;;;;;;4134506;28;20057;-72
2022/04/19 02:08:16;;;;;;;7.78;5.10;;;26.80;98.00;;;;;;4162136;28;20045;-71
2022/04/19 02:10:21;;;;;;;7.25;4.70;;;26.80;97.50;;;;;;4151578;28;20590;-72
2022/04/19 02:12:31;;;;;;;7.63;4.93;;;26.70;97.50;;;;;;4150731;28;20101;-72
2022/04/19 02:14:51;;;;;;;5.32;4.53;;;26.70;97.40;;;;;;4151242;28;20053;-71
2022/04/19 02:16:56;;;;;;;8.70;4.82;;;26.80;97.00;;;;;;4147382;28;22005;-72
2022/04/19 02:19:05;;;;;;;8.48;5.70;;;26.80;96.80;;;;;;4169347;28;20119;-72
2022/04/19 02:21:13;;;;;;;14.95;8.25;;;26.80;97.00;;;;;;4158029;28;20050;-72
2022/04/19 02:23:20;;;;;;;9.80;7.00;;;26.80;97.40;;;;;;4155332;28;20048;-72
2022/04/19 02:25:32;;;;;;;10.32;6.43;;;26.90;96.50;;;;;;4176169;28;20056;-72
2022/04/19 02:27:42;;;;;;;5.60;4.45;;;27.00;96.50;;;;;;4152671;28;20527;-72
2022/04/19 02:29:52;;;;;;;6.47;4.55;;;26.90;96.40;;;;;;4168758;28;20052;-72
2022/04/19 02:32:03;;;;;;;6.97;4.32;;;26.90;96.10;;;;;;4161050;28;20041;-73
2022/04/19 02:34:09;;;;;;;6.90;4.28;;;27.20;95.60;;;;;;4148617;28;20054;-73
2022/04/19 02:36:14;;;;;;;7.97;4.50;;;27.10;95.40;;;;;;4146895;28;20046;-72
2022/04/19 02:38:26;;;;;;;6.72;4.93;;;27.20;96.00;;;;;;4148390;28;20103;-72
2022/04/19 02:40:31;;;;;;;7.15;4.97;;;27.20;95.90;;;;;;4153328;28;20084;-72
2022/04/19 02:42:38;;;;;;;17.00;6.00;;;27.30;96.00;;;;;;4153594;28;20128;-72
2022/04/19 02:44:50;;;;;;;8.77;5.55;;;27.50;95.30;;;;;;4161250;28;20444;-72
2022/04/19 02:47:02;;;;;;;7.38;4.82;;;27.50;95.30;;;;;;4160074;28;20053;-72
2022/04/19 02:49:08;;;;;;;7.30;4.57;;;27.50;94.50;;;;;;4152447;28;20030;-72
2022/04/19 02:51:22;;;;;;;8.45;5.20;;;27.40;94.90;;;;;;4144640;28;20041;-71
2022/04/19 02:53:28;;;;;;;8.63;5.40;;;27.50;95.40;;;;;;4154334;28;20092;-71
2022/04/19 02:55:34;;;;;;;9.60;4.75;;;27.50;95.40;;;;;;4150388;28;20046;-71
2022/04/19 02:57:43;;;;;;;6.25;4.57;;;27.60;95.10;;;;;;4124460;28;20093;-71
2022/04/19 02:59:51;;;;;;;7.32;4.20;;;27.80;94.60;;;;;;4161252;28;20049;-71
2022/04/19 03:01:56;;;;;;;5.25;4.05;;;27.90;94.30;;;;;;4153983;28;20052;-73
2022/04/19 03:04:05;;;;;;;10.82;5.25;;;28.10;94.20;;;;;;4164197;28;20124;-71
2022/04/19 03:06:10;;;;;;;10.93;4.93;;;28.20;94.40;;;;;;4155996;28;20057;-71
2022/04/19 03:08:16;;;;;;;7.15;3.97;;;28.00;93.80;;;;;;4152908;28;20133;-72
2022/04/19 03:10:24;;;;;;;6.45;4.25;;;27.90;93.10;;;;;;4150317;28;20056;-74
2022/04/19 03:12:30;;;;;;;6.63;4.57;;;27.90;93.00;;;;;;4163160;28;20049;-73
2022/04/19 03:14:44;;;;;;;7.35;4.50;;;27.70;93.60;;;;;;4149993;28;20069;-73
2022/04/19 03:16:53;;;;;;;6.07;4.10;;;27.80;93.30;;;;;;4155084;28;20058;-73
2022/04/19 03:18:59;;;;;;;8.27;4.45;;;27.90;93.40;;;;;;4163840;28;20618;-71
2022/04/19 03:21:04;;;;;;;7.00;4.13;;;27.90;93.40;;;;;;4164268;28;20045;-72
2022/04/19 03:27:55;;;;;;;12.05;5.00;;;28.00;93.90;;;;;;4149401;28;20046;-72
2022/04/19 03:30:02;;;;;;;11.57;5.75;;;28.10;94.00;;;;;;4159110;28;20048;-73
2022/04/19 03:32:09;;;;;;;9.20;5.28;;;28.20;94.20;;;;;;4152220;28;20038;-74
2022/04/19 03:34:14;;;;;;;7.63;4.55;;;28.30;94.10;;;;;;4154282;28;20418;-72
2022/04/19 03:36:25;;;;;;;6.68;4.18;;;28.30;92.40;;;;;;4159366;28;20037;-71
2022/04/19 03:38:34;;;;;;;6.72;3.83;;;28.30;93.10;;;;;;4148230;28;20169;-72
2022/04/19 03:40:39;;;;;;;4.55;3.42;;;28.40;92.80;;;;;;4152600;28;20038;-72
2022/04/19 03:42:47;;;;;;;4.07;3.05;;;28.30;91.50;;;;;;4167815;28;20635;-73
2022/04/19 03:44:53;;;;;;;4.60;3.20;;;28.30;92.20;;;;;;4151533;28;20053;-73
2022/04/19 03:47:07;;;;;;;5.97;3.55;;;28.40;92.20;;;;;;4148667;28;20373;-74
2022/04/19 03:49:17;;;;;;;6.28;3.38;;;28.50;92.00;;;;;;4149027;28;20065;-73
2022/04/19 03:51:23;;;;;;;5.65;3.40;;;28.50;91.40;;;;;;4152409;28;20065;-71
2022/04/19 03:53:28;;;;;;;4.25;3.03;;;28.60;91.30;;;;;;4147036;28;20046;-72
2022/04/19 03:55:37;;;;;;;4.63;2.92;;;28.60;91.00;;;;;;4160424;28;20141;-74
2022/04/19 03:57:44;;;;;;;7.00;3.17;;;28.70;90.80;;;;;;4145369;28;20057;-74
2022/04/19 03:59:49;;;;;;;7.43;3.17;;;28.80;90.80;;;;;;4145580;28;20061;-73
2022/04/19 04:02:06;;;;;;;5.82;3.33;;;28.80;90.30;;;;;;4150573;28;20566;-74
2022/04/19 04:04:14;;;;;;;5.70;2.90;;;28.70;90.00;;;;;;4165523;28;20058;-73
2022/04/19 04:06:22;;;;;;;5.35;3.08;;;28.70;90.60;;;;;;4149501;28;20042;-74
2022/04/19 04:08:32;;;;;;;5.55;3.22;;;28.90;90.60;;;;;;4150418;28;20100;-74
2022/04/19 04:10:37;;;;;;;5.43;3.30;;;29.10;90.50;;;;;;4156998;28;20079;-72
2022/04/19 04:12:42;;;;;;;5.88;2.92;;;29.20;90.30;;;;;;4162758;28;20678;-71
2022/04/19 04:14:50;;;;;;;7.78;3.40;;;29.20;90.30;;;;;;4155699;28;20112;-73
2022/04/19 04:16:56;;;;;;;5.15;2.95;;;29.20;90.10;;;;;;4165279;28;20044;-72
2022/04/19 04:19:01;;;;;;;4.55;2.83;;;29.10;89.70;;;;;;4164777;28;20899;-73
2022/04/19 04:21:10;;;;;;;4.95;3.13;;;29.10;89.60;;;;;;4155753;28;20042;-72
2022/04/19 04:23:15;;;;;;;4.65;3.10;;;29.00;89.10;;;;;;4147640;28;20048;-71
2022/04/19 04:25:21;;;;;;;6.60;2.95;;;29.10;88.90;;;;;;4166462;28;20123;-73
2022/04/19 04:27:29;;;;;;;6.10;3.25;;;29.20;89.60;;;;;;4155781;28;20057;-74
2022/04/19 04:29:36;;;;;;;5.35;3.50;;;29.20;89.80;;;;;;4168719;28;20050;-73
2022/04/19 04:31:41;;;;;;;6.53;3.20;;;29.10;88.60;;;;;;4159039;28;20120;-71
2022/04/19 04:33:54;;;;;;;6.45;2.95;;;29.10;89.00;;;;;;4112914;28;20050;-73
2022/04/19 04:35:59;;;;;;;7.07;3.67;;;29.10;88.70;;;;;;4154278;28;20041;-74
2022/04/19 04:38:04;;;;;;;7.78;3.60;;;29.10;88.60;;;;;;4145957;28;20042;-74
2022/04/19 04:40:13;;;;;;;3.78;2.80;;;29.10;89.00;;;;;;4154535;28;20111;-70
2022/04/19 04:42:24;;;;;;;6.25;3.58;;;29.20;88.70;;;;;;4150344;28;20193;-73
2022/04/19 04:44:35;;;;;;;6.20;3.35;;;29.20;88.50;;;;;;4154727;28;20096;-73
2022/04/19 04:51:17;;;;;;;4.57;3.35;;;29.30;88.90;;;;;;4159223;28;20053;-72
2022/04/19 04:53:27;;;;;;;7.60;3.47;;;29.30;88.80;;;;;;4156955;28;20056;-73
2022/04/19 04:55:43;;;;;;;4.75;3.33;;;29.40;88.80;;;;;;4176817;28;20072;-73
2022/04/19 04:57:59;;;;;;;5.57;3.30;;;29.50;89.00;;;;;;4159873;28;20402;-73
2022/04/19 05:00:07;;;;;;;5.63;3.13;;;29.60;89.20;;;;;;4147097;28;20117;-73
2022/04/19 05:02:25;;;;;;;7.40;3.58;;;29.70;89.00;;;;;;4162024;28;20148;-73
2022/04/19 05:04:30;;;;;;;5.72;3.70;;;29.70;89.00;;;;;;4152616;28;20045;-71
2022/04/19 05:06:40;;;;;;;7.63;3.60;;;29.80;88.90;;;;;;4163421;28;20719;-73
2022/04/19 05:08:45;;;;;;;4.85;3.70;;;30.00;88.90;;;;;;4161504;28;20568;-73
2022/04/19 05:10:50;;;;;;;6.88;3.53;;;30.10;88.40;;;;;;4163193;28;20057;-74
2022/04/19 05:13:01;;;;;;;4.68;3.25;;;30.20;88.10;;;;;;4172931;28;20134;-73
2022/04/19 05:15:07;;;;;;;7.55;4.10;;;30.20;87.80;;;;;;4158125;28;20068;-73
2022/04/19 05:17:15;;;;;;;4.25;3.47;;;30.30;87.40;;;;;;4154575;28;20429;-73
2022/04/19 05:19:19;;;;;;;5.95;3.55;;;30.40;87.70;;;;;;4158092;28;20436;-73
2022/04/19 05:21:25;;;;;;;5.38;3.50;;;30.40;87.60;;;;;;4146773;28;20058;-73
2022/04/19 05:23:31;;;;;;;5.32;3.25;;;30.50;88.00;;;;;;4153660;28;20072;-73
2022/04/19 05:25:37;;;;;;;6.88;3.40;;;30.60;87.60;;;;;;4152221;28;20050;-73
2022/04/19 05:27:42;;;;;;;5.28;3.75;;;30.60;87.70;;;;;;4157582;28;20045;-73
2022/04/19 05:29:47;;;;;;;7.65;3.70;;;30.70;87.00;;;;;;4159968;28;20045;-72
2022/04/19 05:31:52;;;;;;;5.50;3.05;;;30.80;87.30;;;;;;4161454;28;20041;-72
2022/04/19 05:33:57;;;;;;;5.25;3.50;;;30.80;87.30;;;;;;4154448;28;20044;-73
2022/04/19 05:36:02;;;;;;;5.03;3.60;;;30.90;87.20;;;;;;4156487;28;20532;-73
2022/04/19 05:38:12;;;;;;;6.20;3.40;;;31.00;87.10;;;;;;4160155;28;20606;-73
2022/04/19 05:40:16;;;;;;;5.90;3.35;;;31.00;86.70;;;;;;4161581;28;20660;-73
2022/04/19 05:42:23;;;;;;;7.35;3.63;;;31.00;86.90;;;;;;4172813;28;20574;-73
2022/04/19 05:44:31;;;;;;;4.47;3.28;;;31.00;86.50;;;;;;4158646;28;20037;-73
2022/04/19 05:46:37;;;;;;;5.00;3.47;;;31.10;86.70;;;;;;4150991;28;20048;-72
2022/04/19 05:48:49;;;;;;;5.82;3.63;;;31.10;86.40;;;;;;4158907;28;20093;-73
2022/04/19 05:50:56;;;;;;;5.75;3.50;;;31.20;86.20;;;;;;4157857;28;20049;-73
2022/04/19 05:53:05;;;;;;;6.20;3.58;;;31.30;86.20;;;;;;4156762;28;20049;-73
2022/04/19 05:55:11;;;;;;;7.40;3.13;;;31.30;85.20;;;;;;4149350;28;20459;-72
2022/04/19 05:57:19;;;;;;;5.32;3.42;;;31.30;86.30;;;;;;4152027;28;20135;-73
2022/04/19 05:59:25;;;;;;;7.13;3.50;;;31.40;84.50;;;;;;4152248;28;20026;-73
2022/04/19 06:04:51;;;;;;;5.05;3.33;;;31.30;85.80;;;;;;4165219;28;20095;-72
2022/04/19 06:06:14;;;;;;;6.68;3.38;;;31.40;84.70;;;;;;4149514;28;20042;-73
2022/04/19 06:08:22;;;;;;;5.05;3.35;;;31.40;82.30;;;;;;4165409;28;20065;-73
2022/04/19 06:10:41;;;;;;;6.25;4.07;;;31.30;83.90;;;;;;4157421;28;20085;-73
2022/04/19 06:12:47;;;;;;;9.27;4.85;;;31.20;83.10;;;;;;4143423;28;20049;-72
2022/04/19 06:14:52;;;;;;;7.88;4.75;;;31.00;83.10;;;;;;4139759;28;20054;-73
2022/04/19 06:17:06;;;;;;;6.47;4.35;;;31.00;84.30;;;;;;4113293;28;20047;-73
2022/04/19 06:19:14;;;;;;;8.70;4.10;;;31.00;83.90;;;;;;4136291;28;20042;-72
2022/04/19 06:21:19;;;;;;;5.38;3.70;;;31.10;83.90;;;;;;4150547;28;20049;-73
2022/04/19 06:23:28;;;;;;;6.72;3.72;;;31.20;83.30;;;;;;4122363;28;20050;-73
2022/04/19 06:25:34;;;;;;;6.22;3.83;;;31.20;82.90;;;;;;4145224;28;20077;-74
2022/04/19 06:27:42;;;;;;;6.18;3.50;;;31.20;82.80;;;;;;4141562;28;20153;-73
2022/04/19 06:29:53;;;;;;;5.78;3.67;;;31.30;83.60;;;;;;4113372;28;20049;-73
2022/04/19 06:31:58;;;;;;;4.22;3.00;;;31.50;83.60;;;;;;4144780;28;20050;-73
2022/04/19 06:34:10;;;;;;;4.30;3.22;;;31.60;83.80;;;;;;4133441;28;20084;-73
2022/04/19 06:36:39;;;;;;;4.95;3.42;;;31.60;82.70;;;;;;4144364;28;20038;-73
2022/04/19 06:38:44;;;;;;;7.47;3.75;;;31.70;82.60;;;;;;4139454;28;20042;-73
2022/04/19 06:40:49;;;;;;;4.07;3.13;;;31.70;82.00;;;;;;4143132;28;20657;-73
2022/04/19 06:42:58;;;;;;;5.13;3.28;;;31.80;82.30;;;;;;4139660;28;20046;-73
2022/04/19 06:45:07;;;;;;;7.57;3.72;;;31.80;82.30;;;;;;4140327;28;20029;-73
2022/04/19 06:47:14;;;;;;;10.00;3.70;;;31.80;80.90;;;;;;4157703;28;20056;-73
2022/04/19 06:49:21;;;;;;;9.40;4.57;;;31.70;81.80;;;;;;4176720;28;20037;-73
2022/04/19 06:51:27;;;;;;;5.28;3.67;;;31.60;81.50;;;;;;4167008;28;20107;-73
2022/04/19 06:53:38;;;;;;;6.72;3.70;;;31.50;82.40;;;;;;4169644;28;20369;-73
2022/04/19 06:55:58;;;;;;;6.65;3.85;;;31.40;83.00;;;;;;4173244;28;20071;-73
2022/04/19 06:58:05;;;;;;;5.13;3.25;;;31.40;82.10;;;;;;4156111;28;20081;-72
2022/04/19 07:00:11;;;;;;;6.03;3.60;;;31.20;82.20;;;;;;4146314;28;20125;-72
2022/04/19 07:02:24;;;;;;;5.40;3.47;;;31.30;82.70;;;;;;4158022;28;20041;-72
2022/04/19 07:04:33;;;;;;;5.65;3.40;;;31.70;82.00;;;;;;4154565;28;20106;-72
2022/04/19 07:06:41;;;;;;;6.07;3.92;;;31.80;81.80;;;;;;4161438;28;20051;-72
2022/04/19 07:08:49;;;;;;;6.15;3.25;;;31.90;81.60;;;;;;4150023;28;20053;-73
2022/04/19 07:10:56;;;;;;;6.93;3.58;;;32.10;81.80;;;;;;4153954;28;20385;-73
2022/04/19 07:13:13;;;;;;;6.20;3.80;;;32.20;80.90;;;;;;4156043;28;20087;-73
2022/04/19 07:15:20;;;;;;;6.10;3.65;;;32.10;80.50;;;;;;4151389;28;20125;-72
2022/04/19 07:17:31;;;;;;;5.25;3.03;;;32.20;78.90;;;;;;4145691;28;20040;-73
2022/04/19 07:26:37;;;;;;;5.13;3.17;;;32.40;80.20;;;;;;4150296;28;20041;-73
2022/04/19 07:26:50;;;;;;;5.82;3.72;;;32.60;81.40;;;;;;4142923;28;20049;-71
2022/04/19 07:29:00;;;;;;;6.30;4.47;;;32.70;82.00;;;;;;4135095;28;20050;-72
2022/04/19 07:31:09;;;;;;;11.30;4.63;;;32.60;80.60;;;;;;4156954;28;20450;-71
2022/04/19 07:33:16;;;;;;;7.95;3.65;;;32.70;80.60;;;;;;4156925;28;20043;-72
2022/04/19 07:35:24;;;;;;;6.20;3.85;;;32.60;80.80;;;;;;4149400;28;20054;-71
2022/04/19 07:37:30;;;;;;;5.28;3.20;;;32.70;81.00;;;;;;4158697;28;20061;-72
2022/04/19 07:39:40;;;;;;;6.22;3.58;;;32.80;80.20;;;;;;4167132;28;20053;-71
2022/04/19 07:41:55;;;;;;;5.75;3.60;;;32.80;80.00;;;;;;4171847;28;20132;-71
2022/04/19 07:44:02;;;;;;;7.00;3.33;;;32.80;79.20;;;;;;4171695;28;20106;-71
2022/04/19 07:46:11;;;;;;;5.47;3.30;;;32.60;76.80;;;;;;4157072;28;20038;-72
2022/04/19 07:48:21;;;;;;;4.38;3.63;;;32.60;78.80;;;;;;4152600;28;20207;-71
2022/04/19 07:50:28;;;;;;;5.90;3.80;;;32.70;78.70;;;;;;4155417;28;20871;-72
2022/04/19 07:52:35;;;;;;;4.78;3.67;;;32.80;79.00;;;;;;4149986;28;20042;-72
2022/04/19 07:54:46;;;;;;;6.72;3.65;;;33.00;79.00;;;;;;4154433;28;20519;-72
2022/04/19 07:56:51;;;;;;;6.63;3.33;;;33.10;78.80;;;;;;4156745;28;20052;-72
2022/04/19 07:59:05;;;;;;;19.00;3.88;;;33.00;78.90;;;;;;4165683;28;20103;-72
2022/04/19 08:01:16;;;;;;;4.55;3.10;;;32.90;79.10;;;;;;4171449;28;20044;-72
2022/04/19 08:03:24;;;;;;;6.20;3.53;;;33.00;79.60;;;;;;4173490;28;20045;-73
2022/04/19 08:05:29;;;;;;;7.80;3.75;;;33.00;78.90;;;;;;4170002;28;20064;-72
2022/04/19 08:07:36;;;;;;;4.78;3.38;;;33.00;78.20;;;;;;4173865;28;20615;-72
2022/04/19 08:09:41;;;;;;;9.07;4.13;;;33.00;78.00;;;;;;4153949;28;20049;-72
2022/04/19 08:11:51;;;;;;;9.45;3.45;;;33.00;78.30;;;;;;4147354;28;20076;-72
2022/04/19 08:14:00;;;;;;;6.38;3.60;;;33.00;77.50;;;;;;4153728;28;20057;-72
2022/04/19 08:16:08;;;;;;;5.35;3.13;;;32.90;78.00;;;;;;4159955;28;20069;-72
2022/04/19 08:18:15;;;;;;;8.55;3.70;;;32.90;79.00;;;;;;4160111;28;20472;-71
2022/04/19 08:20:24;;;;;;;4.72;3.30;;;32.90;78.90;;;;;;4150539;28;20474;-72
2022/04/19 08:22:29;;;;;;;7.03;3.63;;;32.80;78.00;;;;;;4164995;28;20057;-71
2022/04/19 08:24:43;;;;;;;5.40;3.25;;;32.80;77.60;;;;;;4160635;28;20080;-71
2022/04/19 08:26:52;;;;;;;5.75;3.35;;;32.90;76.40;;;;;;4163433;28;20602;-71
2022/04/19 08:28:56;;;;;;;7.45;3.55;;;32.80;77.10;;;;;;4161167;28;20088;-73
2022/04/19 08:31:02;;;;;;;6.20;3.92;;;32.60;76.90;;;;;;4147723;28;20049;-74
2022/04/19 08:33:11;;;;;;;5.22;3.70;;;32.40;76.40;;;;;;4147478;28;20149;-74
2022/04/19 08:35:17;;;;;;;7.80;3.70;;;32.20;76.40;;;;;;4172439;28;20053;-73
2022/04/19 08:37:22;;;;;;;5.82;3.40;;;32.30;76.70;;;;;;4163712;28;20524;-73
2022/04/19 08:39:31;;;;;;;6.68;3.85;;;32.30;76.70;;;;;;4176387;28;20522;-73
2022/04/19 08:41:43;;;;;;;6.50;3.65;;;32.40;77.20;;;;;;4175715;28;20052;-73
2022/04/19 08:43:48;;;;;;;7.75;3.72;;;32.40;77.90;;;;;;4146879;28;20177;-73
2022/04/19 08:45:55;;;;;;;8.82;4.13;;;32.40;78.10;;;;;;4141149;28;20065;-73
2022/04/19 08:48:01;;;;;;;7.13;4.10;;;32.40;78.10;;;;;;4118296;28;20043;-73
2022/04/19 08:50:10;;;;;;;7.03;3.92;;;32.20;76.70;;;;;;4117974;28;20105;-72
2022/04/19 08:52:18;;;;;;;8.45;4.38;;;32.10;77.70;;;;;;4127646;28;20062;-70
2022/04/19 08:59:08;;;;;;;7.97;4.10;;;32.30;78.40;;;;;;4132398;28;20501;-70
2022/04/19 09:01:13;;;;;;;7.18;4.07;;;32.30;76.90;;;;;;4131922;28;20054;-71
2022/04/19 09:03:22;;;;;;;7.55;4.25;;;32.40;77.30;;;;;;4134013;28;20484;-70
2022/04/19 09:05:29;;;;;;;6.18;3.53;;;32.50;77.30;;;;;;4132719;28;20933;-69
2022/04/19 09:07:37;;;;;;;6.15;3.55;;;32.30;76.80;;;;;;4130194;28;20473;-69
2022/04/19 09:09:42;;;;;;;8.27;3.92;;;32.30;77.30;;;;;;4124513;28;20061;-68
2022/04/19 09:11:49;;;;;;;6.25;3.70;;;32.30;77.00;;;;;;4129188;28;20485;-68
2022/04/19 09:14:07;;;;;;;8.13;3.90;;;32.40;77.70;;;;;;4127924;28;20053;-69
2022/04/19 09:16:13;;;;;;;7.18;3.88;;;32.30;76.70;;;;;;4120418;28;20073;-68
2022/04/19 09:18:30;;;;;;;7.40;3.75;;;32.20;77.50;;;;;;4120901;28;20042;-68
2022/04/19 09:20:36;;;;;;;9.50;3.90;;;32.30;76.80;;;;;;4128176;28;20503;-68
2022/04/19 09:22:43;;;;;;;6.70;3.90;;;32.30;77.40;;;;;;4130774;28;20065;-68
2022/04/19 09:24:52;;;;;;;7.13;4.00;;;32.40;78.00;;;;;;4118503;28;20042;-68
2022/04/19 09:26:57;;;;;;;6.75;4.15;;;32.40;77.40;;;;;;4154630;28;20041;-68
2022/04/19 09:29:21;;;;;;;7.40;4.40;;;32.40;76.90;;;;;;4153023;28;20041;-68
2022/04/19 09:31:31;;;;;;;11.45;4.72;;;32.50;77.00;;;;;;4165995;28;20041;-69
2022/04/19 09:33:37;;;;;;;5.60;3.53;;;32.50;77.30;;;;;;4179926;28;20127;-68
2022/04/19 09:35:44;;;;;;;5.93;3.55;;;32.50;77.40;;;;;;4152168;28;20099;-68
2022/04/19 09:37:57;;;;;;;6.53;3.92;;;32.50;77.60;;;;;;4150833;28;20800;-68
2022/04/19 09:40:03;;;;;;;7.28;4.00;;;32.50;77.80;;;;;;4153064;28;20412;-69
2022/04/19 09:42:15;;;;;;;8.77;3.85;;;32.60;77.70;;;;;;4152375;28;20408;-68
2022/04/19 09:44:24;;;;;;;10.65;4.18;;;32.40;77.70;;;;;;4151731;28;20096;-69
2022/04/19 09:46:29;;;;;;;8.25;4.40;;;32.50;77.30;;;;;;4152891;28;20432;-69
2022/04/19 09:48:37;;;;;;;12.23;5.00;;;32.50;77.10;;;;;;4151770;28;20072;-70
2022/04/19 09:50:50;;;;;;;6.78;3.95;;;32.60;77.70;;;;;;4152851;28;20404;-70
2022/04/19 09:52:56;;;;;;;8.32;4.15;;;32.60;77.40;;;;;;4151291;28;20056;-69
2022/04/19 09:55:05;;;;;;;13.82;4.55;;;32.50;77.50;;;;;;4152325;28;20112;-70
2022/04/19 09:57:17;;;;;;;8.10;4.53;;;32.50;77.90;;;;;;4150719;28;20054;-70
2022/04/19 09:59:24;;;;;;;8.07;4.15;;;32.60;77.80;;;;;;4151710;28;20050;-70
2022/04/19 10:08:39;;;;;;;8.95;4.13;;;32.50;77.70;;;;;;4159722;28;20076;-69
2022/04/19 10:10:56;;;;;;;8.73;4.35;;;32.50;77.40;;;;;;4164930;28;20053;-68
2022/04/19 10:13:03;;;;;;;11.98;5.10;;;32.40;77.50;;;;;;4161901;28;20140;-69
2022/04/19 10:15:09;;;;;;;7.78;4.60;;;32.40;77.30;;;;;;4151755;28;20508;-69
2022/04/19 10:17:17;;;;;;;10.20;4.47;;;32.30;77.60;;;;;;4125479;28;20134;-72
2022/04/19 10:19:27;;;;;;;8.88;4.78;;;32.20;77.90;;;;;;4163369;28;20045;-69
2022/04/19 10:21:34;;;;;;;12.38;4.47;;;32.10;78.00;;;;;;4165488;28;20056;-70
2022/04/19 10:23:45;;;;;;;8.05;4.00;;;32.00;78.40;;;;;;4150830;28;20128;-70
2022/04/19 10:25:51;;;;;;;9.27;4.70;;;32.00;78.80;;;;;;4151131;28;20510;-69
2022/04/19 10:28:06;;;;;;;9.63;4.32;;;32.00;79.10;;;;;;4149220;28;20044;-69
2022/04/19 10:30:19;;;;;;;9.82;5.13;;;32.00;79.40;;;;;;4091685;28;20047;-69
2022/04/19 10:32:33;;;;;;;6.40;4.90;;;31.90;79.20;;;;;;4148546;28;20190;-69
2022/04/19 10:34:40;;;;;;;11.95;5.28;;;31.90;79.60;;;;;;4134160;28;20130;-69
2022/04/19 10:36:49;;;;;;;9.40;5.35;;;31.90;79.50;;;;;;4103837;28;20081;-69
2022/04/19 10:39:13;;;;;;;8.23;5.07;;;31.90;80.30;;;;;;4118308;28;20057;-67
2022/04/19 10:41:47;;;;;;;8.38;4.97;;;31.90;80.60;;;;;;4116175;28;20042;-69
2022/04/19 10:44:16;;;;;;;8.20;4.63;;;31.90;81.40;;;;;;4117279;28;20488;-69
2022/04/19 10:46:23;;;;;;;16.13;8.00;;;31.90;82.20;;;;;;4115580;28;20047;-69
2022/04/19 10:48:29;;;;;;;36.97;17.42;;;31.80;81.50;;;;;;4101460;28;20070;-68
2022/04/19 10:50:44;;;;;;;18.58;9.55;;;31.80;81.50;;;;;;4105737;28;20062;-70
2022/04/19 10:52:49;;;;;;;28.65;14.70;;;31.80;81.70;;;;;;4102418;28;20137;-69
2022/04/19 10:55:14;;;;;;;18.40;12.13;;;31.80;81.70;;;;;;4136656;28;20045;-70
2022/04/19 10:59:54;;;;;;;18.67;10.07;;;31.70;82.40;;;;;;4151766;28;20299;-69
2022/04/19 11:02:00;;;;;;;13.95;9.65;;;31.60;82.80;;;;;;4157477;28;20152;-69
2022/04/19 11:04:24;;;;;;;18.95;10.27;;;31.50;82.70;;;;;;4150971;28;20575;-69
2022/04/19 11:06:31;;;;;;;16.38;10.13;;;31.50;82.80;;;;;;4153364;28;20057;-69
2022/04/19 11:08:37;;;;;;;15.48;10.77;;;31.50;83.00;;;;;;4153877;28;20049;-69
2022/04/19 11:10:47;;;;;;;17.17;10.60;;;31.50;83.10;;;;;;4148139;28;20042;-70
2022/04/19 11:13:00;;;;;;;18.92;11.85;;;31.50;83.20;;;;;;4148141;28;20609;-69
2022/04/19 11:15:14;;;;;;;17.45;11.27;;;31.50;83.70;;;;;;4149237;28;20046;-70
2022/04/19 11:17:30;;;;;;;16.92;11.10;;;31.40;84.00;;;;;;4148151;28;20132;-71
2022/04/19 11:19:35;;;;;;;18.35;11.07;;;31.40;84.40;;;;;;4159722;28;20059;-71
2022/04/19 11:21:48;;;;;;;16.75;12.07;;;31.40;84.60;;;;;;4160867;28;20053;-71
2022/04/19 11:23:58;;;;;;;17.27;10.75;;;31.30;84.80;;;;;;4167928;28;20132;-71
2022/04/19 11:26:05;;;;;;;20.42;11.48;;;31.30;85.00;;;;;;4168695;28;20102;-71
2022/04/19 11:28:12;;;;;;;19.60;11.60;;;31.30;85.60;;;;;;4149821;28;20033;-71
2022/04/19 11:30:18;;;;;;;25.98;15.98;;;31.20;85.60;;;;;;4171086;28;20041;-70
2022/04/19 11:32:24;;;;;;;25.77;15.45;;;31.20;86.30;;;;;;4170608;28;20045;-71
2022/04/19 11:34:31;;;;;;;36.15;17.77;;;31.20;86.50;;;;;;4165360;28;20069;-71
2022/04/19 11:36:42;;;;;;;32.70;19.20;;;31.10;86.70;;;;;;4163929;28;20065;-71
2022/04/19 11:38:50;;;;;;;35.65;21.60;;;31.10;87.00;;;;;;4168111;28;20045;-71
2022/04/19 11:47:50;;;;;;;21.77;11.13;;;31.00;87.90;;;;;;4109481;28;20051;-70
2022/04/19 11:50:00;;;;;;;19.58;10.23;;;31.00;88.20;;;;;;4109579;28;20085;-70